Snoqualmie Pass
Snoqualmie Pass
Latest observation 09/01 16:00 PDT
| Time (PDT) | Temp °F 3760' | Temp °F 3770' | Temp °F 3010' | RH % 3010' | Min mph 3760' | Spd mph 3760' | Gust mph 3760' | Dir ° 3760' | Pcp1 in 3010' | PcpSum in 3010' | 24Sno in 3010' | SnoHt in 3010' | Pres millibar 3010' |
|---|---|---|---|---|---|---|---|---|---|---|---|---|---|
| 09/01 16:00 | 51 | 16 | 58 | 78 | 15 | 24 | 34 | 222 | 0.00 | 0.00 | 0.0 | 0.0 | 1011 |
| 09/01 15:00 | 53 | 16 | 61 | 72 | 14 | 20 | 27 | 206 | 0.00 | 0.00 | 0.0 | 0.0 | 1011 |
| 09/01 14:00 | 52 | 17 | 63 | 69 | 11 | 18 | 23 | 203 | 0.00 | 0.00 | 0.0 | 0.0 | 1011 |
| 09/01 13:00 | 52 | 62 | 61 | 72 | 11 | 16 | 21 | 213 | 0.00 | 0.00 | 0.0 | 0.0 | 1011 |
| 09/01 12:00 | 53 | 63 | 62 | 70 | 8 | 12 | 16 | 222 | 0.00 | 0.00 | 0.0 | 0.0 | 1011 |
| 09/01 11:00 | 52 | 62 | 59 | 78 | 6 | 9 | 13 | 223 | 0.00 | 0.00 | 0.0 | 0.0 | 1011 |
| 09/01 10:00 | 52 | 59 | 60 | 72 | 4 | 6 | 9 | 220 | 0.00 | 0.00 | 0.0 | 0.0 | 1011 |
| 09/01 09:00 | 54 | 57 | 57 | 77 | 0 | 4 | 7 | 178 | 0.00 | 0.00 | 0.0 | 0.0 | 1012 |
| 09/01 08:00 | 53 | 55 | 51 | 81 | 0 | 6 | 11 | 214 | 0.00 | 0.00 | 0.0 | 0.0 | 1012 |
| 09/01 07:00 | 54 | 54 | 49 | 84 | 1 | 4 | 8 | 220 | 0.00 | 0.00 | 0.0 | 0.0 | 1012 |
| 09/01 06:00 | 54 | 55 | 50 | 80 | 3 | 6 | 11 | 222 | 0.00 | 0.00 | 0.0 | 0.0 | 1012 |
| 09/01 05:00 | 55 | 57 | 52 | 75 | 7 | 11 | 16 | 216 | 0.00 | 0.00 | 0.0 | 0.0 | 1012 |
| 09/01 04:00 | 59 | 59 | 52 | 74 | 0 | 6 | 12 | 218 | 0.00 | 0.00 | 0.0 | 0.0 | 1012 |
| 09/01 03:00 | 64 | 61 | 50 | 78 | 0 | 2 | 5 | 141 | 0.00 | 0.00 | 0.0 | 0.0 | 1012 |
| 09/01 02:00 | 62 | 61 | 50 | 78 | 2 | 6 | 9 | 98 | 0.00 | 0.00 | 0.0 | 0.0 | 1012 |
| 09/01 01:00 | 62 | 61 | 52 | 81 | 2 | 6 | 9 | 75 | 0.00 | 0.00 | 0.0 | 0.0 | 1012 |
| 09/01 00:00 | 62 | 62 | 53 | 77 | 5 | 8 | 11 | 93 | 0.00 | 0.00 | 0.0 | 0.0 | 1012 |
| 08/31 23:00 | 64 | 62 | 54 | 73 | 4 | 7 | 10 | 111 | 0.00 | 0.00 | 0.0 | 0.0 | 1012 |
| 08/31 22:00 | 64 | 63 | 55 | 72 | 0 | 3 | 8 | 86 | 0.00 | 0.00 | 0.0 | 0.0 | 1012 |
| 08/31 21:00 | 65 | 63 | 57 | 74 | 0 | 3 | 7 | 0 | 0.00 | 0.00 | 0.0 | 0.0 | 1012 |
| 08/31 20:00 | 65 | 65 | 61 | 76 | 1 | 5 | 10 | 158 | 0.00 | 0.00 | 0.0 | 0.0 | 1012 |
| 08/31 19:00 | 69 | 72 | 66 | 62 | 0 | 5 | 12 | 193 | 0.00 | 0.00 | 0.0 | 0.0 | 1011 |
| 08/31 18:00 | 69 | 74 | 72 | 48 | 0 | 3 | 8 | 230 | 0.00 | 0.00 | 0.0 | 0.0 | 1011 |
| 08/31 17:00 | 70 | 75 | 78 | 28 | 2 | 7 | 13 | 145 | 0.00 | 0.00 | 0.0 | 0.0 | 1012 |

